createdAt,value
2018-09-03T00:01:03.071Z,18.08
2018-09-03T00:03:31.627Z,18.11
2018-09-03T00:06:00.215Z,18.13
2018-09-03T00:08:28.811Z,18.15
2018-09-03T00:10:57.829Z,18.13
2018-09-03T00:13:26.451Z,18.07
2018-09-03T00:15:55.243Z,18.00
2018-09-03T00:18:23.864Z,17.95
2018-09-03T00:20:52.440Z,17.94
2018-09-03T00:23:21.461Z,17.91
2018-09-03T00:25:50.043Z,18.00
2018-09-03T00:28:18.647Z,17.96
2018-09-03T00:30:47.444Z,17.90
2018-09-03T00:33:21.044Z,17.88
2018-09-03T00:35:54.856Z,17.88
2018-09-03T00:38:28.519Z,17.87
2018-09-03T00:41:02.263Z,17.95
2018-09-03T00:43:36.027Z,18.00
2018-09-03T00:46:09.759Z,18.07
2018-09-03T00:48:38.387Z,18.16
2018-09-03T00:51:06.979Z,18.17
2018-09-03T00:53:35.636Z,18.16
2018-09-03T00:56:04.227Z,18.20
2018-09-03T00:58:32.790Z,18.25
2018-09-03T01:01:01.653Z,18.09
2018-09-03T01:03:30.217Z,18.14
2018-09-03T01:05:58.787Z,18.16
2018-09-03T01:08:27.476Z,18.17
2018-09-03T01:10:56.028Z,18.14
2018-09-03T01:13:24.616Z,18.09
2018-09-03T01:15:53.566Z,18.07
2018-09-03T01:18:22.161Z,18.10
2018-09-03T01:20:50.737Z,18.12
2018-09-03T01:23:19.428Z,18.08
2018-09-03T01:25:48.069Z,18.11
2018-09-03T01:28:16.644Z,18.13
2018-09-03T01:30:45.308Z,18.18
2018-09-03T01:33:13.882Z,18.18
2018-09-03T01:35:42.488Z,18.23
2018-09-03T01:38:11.207Z,18.22
2018-09-03T01:40:39.774Z,18.16
2018-09-03T01:43:08.368Z,18.19
2018-09-03T01:45:37.283Z,18.12
2018-09-03T01:48:05.923Z,18.10
2018-09-03T01:50:34.473Z,18.08
2018-09-03T01:53:03.048Z,18.17
2018-09-03T01:55:31.603Z,18.19
2018-09-03T01:58:00.167Z,18.24
2018-09-03T02:00:28.777Z,18.23
2018-09-03T02:02:57.356Z,18.22
2018-09-03T02:05:25.921Z,18.15
2018-09-03T02:07:54.659Z,18.18
2018-09-03T02:10:23.208Z,18.21
2018-09-03T02:12:51.764Z,18.25
2018-09-03T02:15:20.661Z,18.30
2018-09-03T02:17:49.220Z,18.32
2018-09-03T02:20:17.780Z,18.31
2018-09-03T02:22:46.664Z,18.32
2018-09-03T02:25:15.227Z,18.27
2018-09-03T02:27:43.807Z,18.34
2018-09-03T02:30:12.397Z,18.31
2018-09-03T02:32:41.584Z,18.37
2018-09-03T02:35:10.158Z,18.35
2018-09-03T02:37:38.828Z,18.36
2018-09-03T02:40:07.681Z,18.33
2018-09-03T02:42:36.310Z,18.38
2018-09-03T02:45:05.340Z,18.44
2018-09-03T02:47:33.926Z,18.45
2018-09-03T02:50:02.500Z,18.48
2018-09-03T02:52:31.187Z,18.35
2018-09-03T02:54:59.735Z,18.24
2018-09-03T02:57:28.336Z,18.16
2018-09-03T02:59:57.136Z,18.24
2018-09-03T03:02:26.072Z,18.29
2018-09-03T03:04:54.655Z,18.34
2018-09-03T03:07:23.555Z,18.30
2018-09-03T03:09:52.131Z,18.30
2018-09-03T03:12:22.607Z,18.21
2018-09-03T03:14:52.351Z,18.28
2018-09-03T03:17:21.461Z,18.37
2018-09-03T03:19:50.220Z,18.36
2018-09-03T03:22:18.951Z,18.36
2018-09-03T03:24:47.639Z,18.41
2018-09-03T03:27:16.730Z,18.46
2018-09-03T03:29:46.000Z,18.47
2018-09-03T03:32:14.759Z,18.50
2018-09-03T03:34:43.335Z,18.50
2018-09-03T03:37:11.907Z,18.43
2018-09-03T03:39:40.521Z,18.46
2018-09-03T03:42:09.080Z,18.46
2018-09-03T03:44:37.679Z,18.50
2018-09-03T03:47:06.316Z,18.43
2018-09-03T03:49:34.899Z,18.40
2018-09-03T03:52:03.579Z,18.39
2018-09-03T03:54:32.293Z,18.45
2018-09-03T03:57:00.871Z,18.55
2018-09-03T03:59:29.450Z,18.55
2018-09-03T04:01:58.194Z,18.56
2018-09-03T04:04:26.771Z,18.45
2018-09-03T04:06:55.350Z,18.36
2018-09-03T04:09:24.076Z,18.27
2018-09-03T04:11:52.663Z,18.36
2018-09-03T04:14:21.208Z,18.33
2018-09-03T04:16:49.903Z,18.33
2018-09-03T04:19:18.483Z,18.33
2018-09-03T04:21:47.056Z,18.37
2018-09-03T04:24:15.995Z,18.41
2018-09-03T04:26:44.560Z,18.40
2018-09-03T04:29:13.129Z,18.41
2018-09-03T04:31:42.028Z,18.39
2018-09-03T04:34:10.675Z,18.39
2018-09-03T04:36:39.227Z,18.38
2018-09-03T04:39:09.824Z,18.30
2018-09-03T04:41:38.711Z,18.31
2018-09-03T04:44:07.339Z,18.44
2018-09-03T04:46:35.933Z,18.50
2018-09-03T04:49:04.515Z,18.46
2018-09-03T04:51:33.135Z,18.42
2018-09-03T04:54:02.077Z,18.40
2018-09-03T04:56:30.633Z,18.45
2018-09-03T04:58:59.187Z,18.52
2018-09-03T05:01:27.852Z,18.51
2018-09-03T05:03:56.415Z,18.54
2018-09-03T05:06:24.967Z,18.58
2018-09-03T05:08:53.593Z,18.55
2018-09-03T05:11:22.147Z,18.52
2018-09-03T05:13:50.788Z,18.56
2018-09-03T05:16:19.492Z,18.55
2018-09-03T05:18:48.051Z,18.57
2018-09-03T05:21:16.642Z,18.65
2018-09-03T05:23:45.269Z,18.68
2018-09-03T05:26:13.895Z,18.70
2018-09-03T05:28:42.431Z,18.72
2018-09-03T05:31:11.183Z,18.74
2018-09-03T05:33:39.771Z,18.78
2018-09-03T05:36:08.492Z,18.81
2018-09-03T05:38:37.144Z,18.79
2018-09-03T05:41:05.797Z,18.80
2018-09-03T05:43:34.597Z,18.78
2018-09-03T05:46:03.512Z,18.77
2018-09-03T05:48:32.076Z,18.69
2018-09-03T05:51:00.679Z,18.72
2018-09-03T05:53:29.375Z,18.70
2018-09-03T05:55:58.011Z,18.56
2018-09-03T05:58:26.603Z,18.62
2018-09-03T06:00:55.261Z,18.69
2018-09-03T06:03:23.973Z,18.62
2018-09-03T06:05:52.555Z,18.70
2018-09-03T06:08:21.206Z,18.69
2018-09-03T06:10:49.764Z,18.72
2018-09-03T06:13:18.337Z,18.75
2018-09-03T06:15:47.400Z,18.81
2018-09-03T06:18:15.956Z,18.84
2018-09-03T06:20:45.056Z,18.86
2018-09-03T06:23:13.748Z,18.86
2018-09-03T06:25:42.321Z,18.85
2018-09-03T06:28:10.875Z,18.89
2018-09-03T06:30:39.465Z,18.93
2018-09-03T06:33:08.035Z,18.97
2018-09-03T06:35:36.587Z,19.00
2018-09-03T06:38:05.287Z,19.00
2018-09-03T06:40:33.869Z,18.98
2018-09-03T06:43:02.420Z,19.00
2018-09-03T06:45:31.328Z,19.01
2018-09-03T06:47:59.891Z,19.04
2018-09-03T06:50:28.440Z,19.03
2018-09-03T06:52:57.393Z,19.05
2018-09-03T06:55:25.967Z,19.04
2018-09-03T06:57:54.536Z,19.05
2018-09-03T07:00:24.088Z,19.08
2018-09-03T07:02:55.590Z,19.01
2018-09-03T07:05:25.604Z,19.01
2018-09-03T07:07:54.155Z,19.05
2018-09-03T07:10:25.258Z,19.12
2018-09-03T07:12:54.026Z,19.17
2018-09-03T07:15:22.887Z,19.18
2018-09-03T07:17:54.483Z,19.19
2018-09-03T07:20:25.558Z,19.21
2018-09-03T07:22:54.203Z,19.24
2018-09-03T07:25:22.796Z,19.20
2018-09-03T07:27:51.335Z,19.14
2018-09-03T07:30:19.908Z,19.22
2018-09-03T07:32:48.464Z,19.26
2018-09-03T07:35:17.074Z,19.28
2018-09-03T07:37:45.741Z,19.32
2018-09-03T07:40:14.319Z,19.35
2018-09-03T07:42:42.887Z,19.27
2018-09-03T07:45:11.476Z,19.28
2018-09-03T07:47:40.091Z,19.35
2018-09-03T07:50:08.647Z,19.36
2018-09-03T07:52:37.351Z,19.30
2018-09-03T07:55:05.912Z,19.36
2018-09-03T07:57:34.463Z,19.40
2018-09-03T08:00:03.134Z,19.47
2018-09-03T08:02:31.695Z,19.57
2018-09-03T08:05:00.251Z,19.46
2018-09-03T08:07:28.934Z,19.47
2018-09-03T08:09:57.471Z,19.45
2018-09-03T08:12:26.028Z,19.53
2018-09-03T08:14:54.696Z,19.61
2018-09-03T08:17:23.332Z,19.47
2018-09-03T08:19:51.905Z,19.36
2018-09-03T08:22:20.583Z,19.41
2018-09-03T08:24:49.140Z,19.51
2018-09-03T08:27:17.708Z,19.58
2018-09-03T08:29:46.771Z,19.60
2018-09-03T08:32:15.332Z,19.61
2018-09-03T08:34:43.891Z,19.61
2018-09-03T08:37:12.875Z,19.70
2018-09-03T08:39:41.427Z,19.73
2018-09-03T08:42:10.170Z,19.71
2018-09-03T08:44:38.787Z,19.67
2018-09-03T08:47:07.404Z,19.43
2018-09-03T08:49:35.944Z,19.36
2018-09-03T08:52:04.544Z,19.28
2018-09-03T08:54:33.121Z,19.39
2018-09-03T08:57:01.695Z,19.17
2018-09-03T08:59:30.539Z,19.12
2018-09-03T09:01:59.100Z,19.11
2018-09-03T09:04:27.652Z,19.09
2018-09-03T09:06:56.284Z,19.15
2018-09-03T09:09:24.832Z,19.07
2018-09-03T09:11:53.384Z,19.08
2018-09-03T09:14:21.951Z,19.10
2018-09-03T09:16:50.495Z,19.18
2018-09-03T09:19:19.080Z,19.20
2018-09-03T09:21:47.760Z,19.24
2018-09-03T09:24:16.301Z,19.29
2018-09-03T09:26:44.844Z,19.41
2018-09-03T09:29:13.531Z,19.36
2018-09-03T09:31:42.076Z,19.38
2018-09-03T09:34:10.636Z,19.40
2018-09-03T09:36:39.444Z,19.48
2018-09-03T09:39:09.201Z,19.49
2018-09-03T09:41:37.762Z,19.46
2018-09-03T09:44:06.963Z,19.53
2018-09-03T09:46:35.521Z,19.38
2018-09-03T09:49:04.071Z,19.41
2018-09-03T09:51:32.729Z,19.46
2018-09-03T09:54:01.295Z,19.54
2018-09-03T09:56:29.844Z,19.56
2018-09-03T09:58:58.508Z,19.69
2018-09-03T10:01:32.271Z,19.67
2018-09-03T10:04:00.918Z,19.80
2018-09-03T10:06:29.467Z,19.76
2018-09-03T10:08:58.393Z,19.84
2018-09-03T10:11:27.819Z,19.82
2018-09-03T10:13:56.375Z,19.91
2018-09-03T10:16:24.951Z,20.14
2018-09-03T10:18:53.627Z,20.25
2018-09-03T10:21:22.172Z,20.42
2018-09-03T10:23:50.724Z,20.48
2018-09-03T10:26:19.766Z,20.55
2018-09-03T10:28:48.336Z,20.66
2018-09-03T10:31:16.915Z,20.67
2018-09-03T10:33:45.559Z,20.89
2018-09-03T10:36:14.119Z,21.07
2018-09-03T10:38:42.759Z,21.17
2018-09-03T10:41:11.716Z,20.94
2018-09-03T10:43:40.375Z,21.11
2018-09-03T10:46:09.020Z,21.20
2018-09-03T10:48:38.076Z,21.29
2018-09-03T10:51:06.620Z,21.32
2018-09-03T10:53:35.184Z,21.28
2018-09-03T10:56:03.799Z,21.35
2018-09-03T10:58:32.359Z,21.08
2018-09-03T11:01:00.951Z,20.85
2018-09-03T11:03:29.628Z,20.78
2018-09-03T11:05:58.179Z,20.81
2018-09-03T11:08:26.768Z,20.75
2018-09-03T11:10:55.647Z,20.81
2018-09-03T11:13:24.199Z,20.70
2018-09-03T11:15:52.789Z,20.61
2018-09-03T11:18:21.707Z,20.61
2018-09-03T11:20:50.274Z,20.74
2018-09-03T11:23:18.824Z,20.66
2018-09-03T11:25:47.443Z,20.72
2018-09-03T11:28:16.063Z,20.62
2018-09-03T11:30:44.687Z,20.64
2018-09-03T11:33:13.279Z,20.47
2018-09-03T11:35:41.843Z,20.63
2018-09-03T11:38:10.399Z,20.74
2018-09-03T11:40:39.067Z,20.85
2018-09-03T11:43:07.771Z,20.98
2018-09-03T11:45:36.323Z,21.08
2018-09-03T11:48:04.916Z,20.98
2018-09-03T11:50:33.487Z,21.09
2018-09-03T11:53:02.044Z,21.05
2018-09-03T11:55:30.643Z,21.05
2018-09-03T11:57:59.271Z,21.20
2018-09-03T12:00:29.735Z,21.45
2018-09-03T12:02:58.915Z,21.65
2018-09-03T12:05:28.198Z,21.78
2018-09-03T12:07:56.923Z,21.95
2018-09-03T12:10:25.664Z,21.86
2018-09-03T12:12:54.208Z,21.78
2018-09-03T12:15:33.265Z,21.96
2018-09-03T12:18:01.827Z,21.83
2018-09-03T12:20:30.753Z,21.86
2018-09-03T12:22:59.435Z,21.89
2018-09-03T12:25:28.096Z,22.05
2018-09-03T12:27:56.984Z,22.02
2018-09-03T12:30:25.580Z,22.11
2018-09-03T12:32:54.151Z,22.30
2018-09-03T12:35:22.724Z,22.52
2018-09-03T12:37:51.388Z,22.62
2018-09-03T12:42:47.515Z,22.43
2018-09-03T12:45:16.156Z,22.46
2018-09-03T12:47:44.730Z,22.47
2018-09-03T12:50:13.363Z,22.58
2018-09-03T12:52:42.143Z,22.72
2018-09-03T12:55:10.716Z,22.68
2018-09-03T12:57:39.261Z,22.90
2018-09-03T13:00:07.888Z,22.86
2018-09-03T13:02:39.415Z,22.68
2018-09-03T13:05:05.139Z,22.87
2018-09-03T13:07:33.811Z,22.79
2018-09-03T13:10:02.371Z,22.86
2018-09-03T13:12:31.090Z,22.74
2018-09-03T13:14:59.700Z,22.85
2018-09-03T13:17:29.215Z,22.91
2018-09-03T13:19:57.887Z,22.81
2018-09-03T13:22:26.788Z,22.80
2018-09-03T13:24:55.377Z,22.86
2018-09-03T13:27:23.936Z,23.06
2018-09-03T13:29:52.655Z,23.08
2018-09-03T13:32:21.227Z,22.88
2018-09-03T13:34:49.804Z,23.13
2018-09-03T13:37:18.528Z,23.10
2018-09-03T13:39:47.093Z,23.05
2018-09-03T13:42:15.987Z,23.17
2018-09-03T13:44:44.667Z,23.19
2018-09-03T13:47:13.227Z,23.23
2018-09-03T13:49:41.791Z,23.26
2018-09-03T13:52:10.607Z,23.25
2018-09-03T13:54:39.179Z,23.27
2018-09-03T13:57:07.752Z,23.27
2018-09-03T13:59:36.439Z,23.15
2018-09-03T14:02:05.372Z,23.17
2018-09-03T14:04:33.992Z,23.35
2018-09-03T14:07:02.571Z,23.39
2018-09-03T14:09:32.121Z,23.35
2018-09-03T14:12:00.716Z,23.39
2018-09-03T14:14:29.471Z,23.29
2018-09-03T14:16:58.779Z,23.33
2018-09-03T14:19:27.373Z,23.19
2018-09-03T14:21:55.972Z,23.22
2018-09-03T14:24:24.588Z,23.18
2018-09-03T14:26:53.295Z,23.21
2018-09-03T14:29:23.014Z,23.23
2018-09-03T14:31:51.627Z,23.18
2018-09-03T14:34:20.184Z,23.21
2018-09-03T14:36:49.021Z,23.04
2018-09-03T14:39:18.067Z,23.05
2018-09-03T14:41:47.675Z,23.03
2018-09-03T14:44:18.395Z,23.16
2018-09-03T14:46:48.653Z,23.12
2018-09-03T14:49:18.841Z,22.97
2018-09-03T14:51:48.935Z,22.82
2018-09-03T14:54:17.931Z,22.91
2018-09-03T14:56:47.830Z,22.92
2018-09-03T14:59:16.391Z,23.00
2018-09-03T15:01:45.287Z,23.07
2018-09-03T15:04:13.936Z,23.03
2018-09-03T15:06:42.535Z,23.00
2018-09-03T15:09:12.400Z,23.05
2018-09-03T15:11:41.267Z,22.96
2018-09-03T15:14:09.852Z,23.02
2018-09-03T15:16:38.440Z,22.96
2018-09-03T15:19:07.350Z,23.02
2018-09-03T15:21:36.520Z,23.07
2018-09-03T15:24:05.894Z,23.12
2018-09-03T15:26:35.041Z,23.16
2018-09-03T15:29:03.591Z,23.13
2018-09-03T15:31:32.179Z,23.21
2018-09-03T15:34:00.907Z,23.21
2018-09-03T15:36:29.564Z,23.17
2018-09-03T15:38:58.257Z,23.14
2018-09-03T15:41:26.822Z,23.17
2018-09-03T15:43:55.408Z,23.15
2018-09-03T15:46:24.008Z,23.06
2018-09-03T15:48:52.608Z,22.95
2018-09-03T15:51:21.164Z,23.01
2018-09-03T15:53:50.080Z,22.94
2018-09-03T15:56:18.681Z,22.82
2018-09-03T15:58:47.232Z,22.78
2018-09-03T16:01:15.912Z,22.83
2018-09-03T16:03:44.489Z,22.78
2018-09-03T16:06:13.051Z,22.77
2018-09-03T16:08:42.000Z,22.75
2018-09-03T16:11:10.559Z,22.74
2018-09-03T16:13:39.128Z,22.62
2018-09-03T16:16:07.787Z,22.64
2018-09-03T16:18:36.622Z,22.64
2018-09-03T16:21:05.656Z,22.59
2018-09-03T16:23:34.953Z,22.64
2018-09-03T16:26:03.841Z,22.64
2018-09-03T16:28:32.451Z,22.67
2018-09-03T16:31:01.544Z,22.66
2018-09-03T16:33:30.486Z,22.60
2018-09-03T16:35:59.393Z,22.63
2018-09-03T16:38:28.015Z,22.52
2018-09-03T16:40:56.878Z,22.59
2018-09-03T16:43:26.044Z,22.56
2018-09-03T16:45:54.847Z,22.53
2018-09-03T16:48:23.765Z,22.59
2018-09-03T16:50:52.876Z,22.55
2018-09-03T16:53:22.061Z,22.53
2018-09-03T16:55:51.140Z,22.64
2018-09-03T16:58:20.255Z,22.65
2018-09-03T17:00:48.923Z,22.66
2018-09-03T17:03:17.449Z,22.64
2018-09-03T17:05:46.476Z,22.57
2018-09-03T17:08:15.488Z,22.51
2018-09-03T17:10:44.303Z,22.51
2018-09-03T17:13:13.194Z,22.48
2018-09-03T17:15:42.167Z,22.51
2018-09-03T17:18:10.744Z,22.51
2018-09-03T17:20:39.686Z,22.49
2018-09-03T17:23:08.299Z,22.49
2018-09-03T17:25:37.195Z,22.48
2018-09-03T17:28:06.479Z,22.46
2018-09-03T17:30:35.222Z,22.47
2018-09-03T17:33:03.805Z,22.44
2018-09-03T17:35:32.540Z,22.35
2018-09-03T17:38:01.456Z,22.34
2018-09-03T17:40:31.559Z,22.37
2018-09-03T17:43:00.372Z,22.35
2018-09-03T17:45:28.987Z,22.33
2018-09-03T17:47:57.735Z,22.35
2018-09-03T17:50:26.312Z,22.36
2018-09-03T17:52:55.335Z,22.31
2018-09-03T17:55:23.919Z,22.31
2018-09-03T17:57:52.484Z,22.30
2018-09-03T18:00:21.160Z,22.22
2018-09-03T18:02:49.719Z,22.20
2018-09-03T18:05:18.292Z,22.18
2018-09-03T18:07:46.887Z,22.16
2018-09-03T18:10:15.453Z,22.13
2018-09-03T18:12:44.021Z,22.11
2018-09-03T18:15:12.696Z,22.08
2018-09-03T18:17:41.248Z,21.97
2018-09-03T18:20:09.924Z,21.98
2018-09-03T18:22:38.859Z,21.96
2018-09-03T18:25:07.487Z,21.88
2018-09-03T18:27:36.164Z,21.88
2018-09-03T18:30:04.876Z,21.83
2018-09-03T18:32:33.508Z,21.86
2018-09-03T18:35:02.080Z,21.85
2018-09-03T18:37:31.083Z,21.82
2018-09-03T18:39:59.665Z,21.82
2018-09-03T18:42:28.232Z,21.78
2018-09-03T18:44:56.919Z,21.76
2018-09-03T18:47:25.509Z,21.71
2018-09-03T18:49:54.096Z,21.65
2018-09-03T18:52:22.851Z,21.57
2018-09-03T18:54:51.407Z,21.48
2018-09-03T18:57:19.976Z,21.40
2018-09-03T18:59:48.728Z,21.29
2018-09-03T19:02:17.271Z,21.25
2018-09-03T19:04:45.839Z,21.14
2018-09-03T19:07:14.507Z,21.11
2018-09-03T19:09:43.133Z,21.07
2018-09-03T19:12:11.703Z,21.05
2018-09-03T19:14:40.291Z,20.96
2018-09-03T19:17:08.874Z,20.98
2018-09-03T19:19:37.504Z,20.93
2018-09-03T19:22:06.295Z,20.92
2018-09-03T19:24:34.864Z,20.92
2018-09-03T19:27:03.492Z,20.91
2018-09-03T19:29:32.159Z,20.87
2018-09-03T19:32:00.747Z,20.77
2018-09-03T19:34:29.302Z,20.68
2018-09-03T19:36:57.996Z,20.65
2018-09-03T19:39:26.551Z,20.66
2018-09-03T19:41:55.115Z,20.60
2018-09-03T19:44:23.819Z,20.60
2018-09-03T19:46:52.383Z,20.52
2018-09-03T19:49:21.107Z,20.47
2018-09-03T19:51:49.959Z,20.45
2018-09-03T19:54:18.645Z,20.44
2018-09-03T19:56:47.204Z,20.48
2018-09-03T19:59:15.807Z,20.48
2018-09-03T20:01:44.355Z,20.40
2018-09-03T20:04:13.005Z,20.31
2018-09-03T20:06:41.680Z,20.28
2018-09-03T20:09:11.099Z,20.30
2018-09-03T20:11:40.534Z,20.29
2018-09-03T20:14:09.976Z,20.30
2018-09-03T20:16:38.558Z,20.32
2018-09-03T20:19:07.115Z,20.30
2018-09-03T20:21:35.796Z,20.24
2018-09-03T20:24:04.435Z,20.24
2018-09-03T20:26:33.064Z,20.18
2018-09-03T20:29:01.744Z,20.14
2018-09-03T20:31:30.308Z,20.08
2018-09-03T20:33:58.967Z,20.06
2018-09-03T20:36:27.584Z,20.07
2018-09-03T20:38:56.331Z,20.00
2018-09-03T20:41:24.915Z,19.96
2018-09-03T20:43:53.619Z,19.92
2018-09-03T20:46:22.218Z,19.89
2018-09-03T20:48:50.828Z,19.86
2018-09-03T20:51:19.763Z,19.82
2018-09-03T20:53:48.859Z,19.82
2018-09-03T20:56:17.451Z,19.78
2018-09-03T20:58:46.084Z,19.73
2018-09-03T21:01:14.648Z,19.71
2018-09-03T21:03:43.208Z,19.65
2018-09-03T21:06:12.068Z,19.64
2018-09-03T21:08:40.617Z,19.64
2018-09-03T21:11:09.183Z,19.64
2018-09-03T21:13:37.968Z,19.63
2018-09-03T21:16:06.711Z,19.61
2018-09-03T21:18:35.304Z,19.57
2018-09-03T21:21:03.959Z,19.54
2018-09-03T21:23:32.775Z,19.50
2018-09-03T21:26:01.404Z,19.46
2018-09-03T21:28:30.208Z,19.40
2018-09-03T21:30:58.778Z,19.36
2018-09-03T21:33:27.511Z,19.31
2018-09-03T21:35:56.107Z,19.28
2018-09-03T21:38:24.883Z,19.24
2018-09-03T21:40:53.454Z,19.19
2018-09-03T21:43:22.472Z,19.13
2018-09-03T21:45:51.065Z,19.04
2018-09-03T21:48:19.853Z,18.94
2018-09-03T21:50:48.543Z,18.91
2018-09-03T21:53:17.095Z,18.86
2018-09-03T21:55:45.696Z,18.79
2018-09-03T21:58:14.379Z,18.76
2018-09-03T22:00:44.512Z,18.74
2018-09-03T22:03:13.080Z,18.72
2018-09-03T22:05:41.863Z,18.70
2018-09-03T22:08:10.424Z,18.66
2018-09-03T22:10:38.980Z,18.64
2018-09-03T22:13:07.774Z,18.58
2018-09-03T22:15:36.615Z,18.53
2018-09-03T22:18:05.179Z,18.50
2018-09-03T22:20:33.824Z,18.49
2018-09-03T22:23:02.375Z,18.50
2018-09-03T22:25:30.967Z,18.43
2018-09-03T22:27:59.651Z,18.42
2018-09-03T22:30:29.829Z,18.35
2018-09-03T22:32:58.427Z,18.30
2018-09-03T22:35:27.203Z,18.29
2018-09-03T22:37:55.791Z,18.27
2018-09-03T22:40:24.378Z,18.25
2018-09-03T22:42:52.971Z,18.21
2018-09-03T22:45:21.566Z,18.18
2018-09-03T22:47:50.132Z,18.12
2018-09-03T22:50:18.821Z,18.10
2018-09-03T22:52:47.387Z,18.09
2018-09-03T22:55:15.975Z,18.04
2018-09-03T22:57:44.592Z,18.03
2018-09-03T23:00:13.188Z,18.01
2018-09-03T23:02:43.719Z,18.00
2018-09-03T23:05:12.966Z,17.97
2018-09-03T23:07:41.545Z,17.95
2018-09-03T23:10:10.583Z,17.93
2018-09-03T23:12:39.147Z,17.92
2018-09-03T23:15:08.632Z,17.90
2018-09-03T23:17:37.371Z,17.93
2018-09-03T23:20:05.955Z,17.94
2018-09-03T23:22:34.651Z,17.96
2018-09-03T23:25:03.255Z,17.96
2018-09-03T23:27:31.829Z,17.99
2018-09-03T23:30:00.395Z,17.97
2018-09-03T23:32:29.392Z,17.98
2018-09-03T23:34:57.951Z,17.98
2018-09-03T23:37:26.554Z,17.97
2018-09-03T23:39:55.476Z,17.96
2018-09-03T23:42:24.042Z,17.96
2018-09-03T23:44:52.643Z,17.98
2018-09-03T23:47:21.263Z,18.03
2018-09-03T23:49:49.823Z,18.03
2018-09-03T23:52:18.376Z,18.02
2018-09-03T23:54:47.003Z,18.01
2018-09-03T23:57:15.571Z,18.00
2018-09-03T23:59:44.157Z,17.98
